Abington, Massachusetts
Current Conditions -  °F | °C
As of 6:53 PM on Thursday 27 Nov 2014 (Local Time) from KOWD Reporting Station
Overcast Overcast  
Wind Chill: 28°   Ceiling: 1500
Heat Index: 34°   Visibility: 10mi
Dew Point: 27°   Wind: 7mph
Humidity: 75%   Direction: 350°N
Pressure: 29.99"   Gusts: NA
Location:  42.12°N, 70.96°W
Report Text: KOWD 272353Z 35006KT 10SM OVC015 01/M03 A2999 RMK AO2 SLP157 T00111028 10039 20011 53009
Loading
Personal Weather Stations






























Interactive Weather Map New forecast layout! Learn more

10-Day Weather Forecast

Advertisements
Track Severe Weather on mobile